sensor_id;sensor_type;location;lat;lon;timestamp;pressure;altitude;pressure_sealevel;temperature;humidity
21960;BME280;11144;43.030;25.108;2023-05-07T00:00:38;99505.03;;;11.59;100.00
21960;BME280;11144;43.030;25.108;2023-05-07T00:02:10;99507.69;;;11.59;100.00
21960;BME280;11144;43.030;25.108;2023-05-07T00:03:43;99497.34;;;11.53;100.00
21960;BME280;11144;43.030;25.108;2023-05-07T00:05:17;99504.56;;;11.48;100.00
21960;BME280;11144;43.030;25.108;2023-05-07T00:06:51;99502.84;;;11.47;100.00
21960;BME280;11144;43.030;25.108;2023-05-07T00:08:23;99502.78;;;11.49;100.00
21960;BME280;11144;43.030;25.108;2023-05-07T00:09:56;99509.75;;;11.51;100.00
21960;BME280;11144;43.030;25.108;2023-05-07T00:11:30;99507.94;;;11.53;100.00
21960;BME280;11144;43.030;25.108;2023-05-07T00:13:04;99509.53;;;11.57;100.00
21960;BME280;11144;43.030;25.108;2023-05-07T00:14:38;99511.25;;;11.58;100.00
21960;BME280;11144;43.030;25.108;2023-05-07T00:16:10;99509.44;;;11.60;100.00
21960;BME280;11144;43.030;25.108;2023-05-07T00:17:43;99512.91;;;11.62;100.00
21960;BME280;11144;43.030;25.108;2023-05-07T00:19:15;99516.38;;;11.64;100.00
21960;BME280;11144;43.030;25.108;2023-05-07T00:20:48;99514.50;;;11.66;100.00
21960;BME280;11144;43.030;25.108;2023-05-07T00:22:22;99512.69;;;11.68;100.00
21960;BME280;11144;43.030;25.108;2023-05-07T00:23:55;99512.69;;;11.68;100.00
21960;BME280;11144;43.030;25.108;2023-05-07T00:25:28;99520.03;;;11.60;100.00
21960;BME280;11144;43.030;25.108;2023-05-07T00:27:02;99514.84;;;11.57;100.00
21960;BME280;11144;43.030;25.108;2023-05-07T00:28:35;99521.97;;;11.55;100.00
21960;BME280;11144;43.030;25.108;2023-05-07T00:30:09;99520.13;;;11.57;100.00
21960;BME280;11144;43.030;25.108;2023-05-07T00:31:43;99520.25;;;11.54;100.00
21960;BME280;11144;43.030;25.108;2023-05-07T00:33:16;99519.41;;;11.52;100.00
21960;BME280;11144;43.030;25.108;2023-05-07T00:34:49;99508.03;;;11.50;100.00
21960;BME280;11144;43.030;25.108;2023-05-07T00:36:23;99522.19;;;11.49;100.00
21960;BME280;11144;43.030;25.108;2023-05-07T00:37:56;99523.16;;;11.47;100.00
21960;BME280;11144;43.030;25.108;2023-05-07T00:39:29;99523.28;;;11.44;100.00
21960;BME280;11144;43.030;25.108;2023-05-07T00:41:02;99526.72;;;11.46;100.00
21960;BME280;11144;43.030;25.108;2023-05-07T00:42:37;99527.69;;;11.43;100.00
21960;BME280;11144;43.030;25.108;2023-05-07T00:44:10;99514.91;;;11.31;100.00
21960;BME280;11144;43.030;25.108;2023-05-07T00:45:44;99528.84;;;11.36;100.00
21960;BME280;11144;43.030;25.108;2023-05-07T00:47:16;99527.91;;;11.37;100.00
21960;BME280;11144;43.030;25.108;2023-05-07T00:48:50;99519.19;;;11.35;100.00
21960;BME280;11144;43.030;25.108;2023-05-07T00:50:23;99526.19;;;11.36;100.00
21960;BME280;11144;43.030;25.108;2023-05-07T00:51:56;99520.25;;;11.30;100.00
21960;BME280;11144;43.030;25.108;2023-05-07T00:53:30;99516.88;;;11.25;100.00
21960;BME280;11144;43.030;25.108;2023-05-07T00:55:05;99522.38;;;11.20;100.00
21960;BME280;11144;43.030;25.108;2023-05-07T00:56:39;99526.16;;;11.13;100.00
21960;BME280;11144;43.030;25.108;2023-05-07T00:58:14;99522.09;;;11.03;100.00
21960;BME280;11144;43.030;25.108;2023-05-07T00:59:48;99527.47;;;11.00;100.00
21960;BME280;11144;43.030;25.108;2023-05-07T01:01:20;99522.28;;;10.97;100.00
21960;BME280;11144;43.030;25.108;2023-05-07T01:02:53;99525.06;;;10.94;100.00
21960;BME280;11144;43.030;25.108;2023-05-07T01:04:27;99520.66;;;10.93;100.00
21960;BME280;11144;43.030;25.108;2023-05-07T01:06:01;99517.31;;;10.88;100.00
21960;BME280;11144;43.030;25.108;2023-05-07T01:07:35;99521.59;;;10.92;100.00
21960;BME280;11144;43.030;25.108;2023-05-07T01:09:09;99527.56;;;10.97;100.00
21960;BME280;11144;43.030;25.108;2023-05-07T01:10:43;99525.75;;;10.99;100.00
21960;BME280;11144;43.030;25.108;2023-05-07T01:12:16;99524.13;;;10.95;100.00
21960;BME280;11144;43.030;25.108;2023-05-07T01:13:51;99519.81;;;10.93;100.00
21960;BME280;11144;43.030;25.108;2023-05-07T01:15:25;99521.63;;;10.91;100.00
21960;BME280;11144;43.030;25.108;2023-05-07T01:16:58;99518.25;;;10.87;100.00
21960;BME280;11144;43.030;25.108;2023-05-07T01:18:32;99519.13;;;10.86;100.00
21960;BME280;11144;43.030;25.108;2023-05-07T01:20:06;99522.69;;;10.85;100.00
21960;BME280;11144;43.030;25.108;2023-05-07T01:21:43;99530.78;;;10.81;100.00
21960;BME280;11144;43.030;25.108;2023-05-07T01:23:19;99526.50;;;10.77;100.00
21960;BME280;11144;43.030;25.108;2023-05-07T01:24:52;99529.38;;;10.71;100.00
21960;BME280;11144;43.030;25.108;2023-05-07T01:26:26;99532.22;;;10.65;100.00
21960;BME280;11144;43.030;25.108;2023-05-07T01:27:58;99529.72;;;10.60;100.00
21960;BME280;11144;43.030;25.108;2023-05-07T01:29:37;99533.34;;;10.58;100.00
21960;BME280;11144;43.030;25.108;2023-05-07T01:31:10;99536.13;;;10.53;100.00
21960;BME280;11144;43.030;25.108;2023-05-07T01:32:49;99536.44;;;10.44;100.00
21960;BME280;11144;43.030;25.108;2023-05-07T01:34:24;99531.13;;;10.44;100.00
21960;BME280;11144;43.030;25.108;2023-05-07T01:35:59;99533.88;;;10.41;100.00
21960;BME280;11144;43.030;25.108;2023-05-07T01:37:35;99529.50;;;10.40;100.00
21960;BME280;11144;43.030;25.108;2023-05-07T01:39:10;99533.88;;;10.41;100.00
21960;BME280;11144;43.030;25.108;2023-05-07T01:40:43;99526.78;;;10.43;100.00
21960;BME280;11144;43.030;25.108;2023-05-07T01:42:17;99525.84;;;10.44;100.00
21960;BME280;11144;43.030;25.108;2023-05-07T01:43:50;99528.53;;;10.43;100.00
21960;BME280;11144;43.030;25.108;2023-05-07T01:45:24;99540.66;;;10.50;100.00
21960;BME280;11144;43.030;25.108;2023-05-07T01:46:57;99534.47;;;10.49;100.00
21960;BME280;11144;43.030;25.108;2023-05-07T01:48:32;99534.38;;;10.52;100.00
21960;BME280;11144;43.030;25.108;2023-05-07T01:50:06;99522.09;;;10.51;100.00
21960;BME280;11144;43.030;25.108;2023-05-07T01:51:42;99524.75;;;10.51;100.00
21960;BME280;11144;43.030;25.108;2023-05-07T01:53:16;99530.94;;;10.50;100.00
21960;BME280;11144;43.030;25.108;2023-05-07T01:54:50;99525.72;;;10.49;100.00
21960;BME280;11144;43.030;25.108;2023-05-07T01:56:24;99525.84;;;10.44;100.00
21960;BME280;11144;43.030;25.108;2023-05-07T01:57:58;99521.63;;;10.38;100.00
21960;BME280;11144;43.030;25.108;2023-05-07T01:59:32;99516.34;;;10.38;100.00
21960;BME280;11144;43.030;25.108;2023-05-07T02:01:05;99519.03;;;10.37;100.00
21960;BME280;11144;43.030;25.108;2023-05-07T02:02:38;99513.56;;;10.43;100.00
21960;BME280;11144;43.030;25.108;2023-05-07T02:04:14;99516.91;;;10.48;100.00
21960;BME280;11144;43.030;25.108;2023-05-07T02:05:48;99509.59;;;10.56;100.00
21960;BME280;11144;43.030;25.108;2023-05-07T02:07:38;99504.97;;;10.63;100.00
21960;BME280;11144;43.030;25.108;2023-05-07T02:09:11;99497.75;;;10.68;100.00
21960;BME280;11144;43.030;25.108;2023-05-07T02:10:48;99506.44;;;10.71;100.00
21960;BME280;11144;43.030;25.108;2023-05-07T02:12:21;99507.84;;;10.81;100.00
21960;BME280;11144;43.030;25.108;2023-05-07T02:13:55;99506.72;;;10.88;100.00
21960;BME280;11144;43.030;25.108;2023-05-07T02:15:28;99499.50;;;10.93;100.00
21960;BME280;11144;43.030;25.108;2023-05-07T02:17:02;99509.88;;;10.99;100.00
21960;BME280;11144;43.030;25.108;2023-05-07T02:18:36;99501.88;;;11.01;100.00
21960;BME280;11144;43.030;25.108;2023-05-07T02:20:10;99507.13;;;11.02;100.00
21960;BME280;11144;43.030;25.108;2023-05-07T02:21:46;99510.66;;;11.01;100.00
21960;BME280;11144;43.030;25.108;2023-05-07T02:23:19;99506.19;;;11.03;100.00
21960;BME280;11144;43.030;25.108;2023-05-07T02:24:53;99501.94;;;10.99;100.00
21960;BME280;11144;43.030;25.108;2023-05-07T02:26:28;99501.84;;;11.02;100.00
21960;BME280;11144;43.030;25.108;2023-05-07T02:28:01;99511.59;;;11.00;100.00
21960;BME280;11144;43.030;25.108;2023-05-07T02:29:49;99509.06;;;10.97;100.00
21960;BME280;11144;43.030;25.108;2023-05-07T02:31:23;99500.38;;;10.94;100.00
21960;BME280;11144;43.030;25.108;2023-05-07T02:32:55;99501.25;;;10.94;100.00
21960;BME280;11144;43.030;25.108;2023-05-07T02:34:28;99501.25;;;10.94;100.00
21960;BME280;11144;43.030;25.108;2023-05-07T02:36:08;99499.41;;;10.96;100.00
21960;BME280;11144;43.030;25.108;2023-05-07T02:37:59;99501.44;;;10.88;100.00
21960;BME280;11144;43.030;25.108;2023-05-07T02:39:32;99497.13;;;10.86;100.00
21960;BME280;11144;43.030;25.108;2023-05-07T02:41:06;99497.19;;;10.84;100.00
21960;BME280;11144;43.030;25.108;2023-05-07T02:42:40;99504.19;;;10.85;100.00
21960;BME280;11144;43.030;25.108;2023-05-07T02:44:13;99495.41;;;10.85;100.00
21960;BME280;11144;43.030;25.108;2023-05-07T02:45:47;99489.25;;;10.84;100.00
21960;BME280;11144;43.030;25.108;2023-05-07T02:47:20;99493.56;;;10.87;100.00
21960;BME280;11144;43.030;25.108;2023-05-07T02:48:54;99495.47;;;10.83;100.00
21960;BME280;11144;43.030;25.108;2023-05-07T02:50:27;99492.69;;;10.86;100.00
21960;BME280;11144;43.030;25.108;2023-05-07T02:52:00;99500.63;;;10.86;100.00
21960;BME280;11144;43.030;25.108;2023-05-07T02:53:33;99489.34;;;10.81;100.00
21960;BME280;11144;43.030;25.108;2023-05-07T02:55:07;99496.34;;;10.82;100.00
21960;BME280;11144;43.030;25.108;2023-05-07T02:56:40;99496.59;;;10.76;100.00
21960;BME280;11144;43.030;25.108;2023-05-07T02:58:14;99496.47;;;10.79;100.00
21960;BME280;11144;43.030;25.108;2023-05-07T02:59:47;99494.09;;;10.72;100.00
21960;BME280;11144;43.030;25.108;2023-05-07T03:01:22;99503.81;;;10.70;100.00
21960;BME280;11144;43.030;25.108;2023-05-07T03:03:08;99503.91;;;10.68;100.00
21960;BME280;11144;43.030;25.108;2023-05-07T03:04:41;99497.75;;;10.68;100.00
21960;BME280;11144;43.030;25.108;2023-05-07T03:06:15;99500.25;;;10.72;100.00
21960;BME280;11144;43.030;25.108;2023-05-07T03:07:48;99509.06;;;10.71;100.00
21960;BME280;11144;43.030;25.108;2023-05-07T03:09:21;99510.81;;;10.72;100.00
21960;BME280;11144;43.030;25.108;2023-05-07T03:10:54;99510.81;;;10.72;100.00
21960;BME280;11144;43.030;25.108;2023-05-07T03:12:27;99499.47;;;10.69;100.00
21960;BME280;11144;43.030;25.108;2023-05-07T03:14:01;99509.06;;;10.71;100.00
21960;BME280;11144;43.030;25.108;2023-05-07T03:15:35;99510.91;;;10.69;100.00
21960;BME280;11144;43.030;25.108;2023-05-07T03:17:07;99519.56;;;10.74;100.00
21960;BME280;11144;43.030;25.108;2023-05-07T03:18:40;99514.59;;;10.65;100.00
21960;BME280;11144;43.030;25.108;2023-05-07T03:20:14;99514.06;;;10.54;100.00
21960;BME280;11144;43.030;25.108;2023-05-07T03:21:47;99515.47;;;10.38;100.00
21960;BME280;11144;43.030;25.108;2023-05-07T03:23:21;99513.75;;;10.37;100.00
21960;BME280;11144;43.030;25.108;2023-05-07T03:24:55;99526.44;;;10.26;100.00
21960;BME280;11144;43.030;25.108;2023-05-07T03:26:29;99515.84;;;10.26;100.00
21960;BME280;11144;43.030;25.108;2023-05-07T03:28:01;99525.47;;;10.28;100.00
21960;BME280;11144;43.030;25.108;2023-05-07T03:29:44;99526.25;;;10.32;100.00
21960;BME280;11144;43.030;25.108;2023-05-07T03:31:16;99521.75;;;10.34;100.00
21960;BME280;11144;43.030;25.108;2023-05-07T03:32:50;99519.03;;;10.37;100.00
21960;BME280;11144;43.030;25.108;2023-05-07T03:34:23;99524.22;;;10.40;100.00
21960;BME280;11144;43.030;25.108;2023-05-07T03:35:56;99524.22;;;10.40;100.00
21960;BME280;11144;43.030;25.108;2023-05-07T03:37:30;99521.50;;;10.43;100.00
21960;BME280;11144;43.030;25.108;2023-05-07T03:39:04;99518.63;;;10.49;100.00
21960;BME280;11144;43.030;25.108;2023-05-07T03:40:42;99524.75;;;10.51;100.00
21960;BME280;11144;43.030;25.108;2023-05-07T03:42:16;99524.66;;;10.54;100.00
21960;BME280;11144;43.030;25.108;2023-05-07T03:43:49;99523.63;;;10.58;100.00
21960;BME280;11144;43.030;25.108;2023-05-07T03:45:23;99518.25;;;10.61;100.00
21960;BME280;11144;43.030;25.108;2023-05-07T03:47:07;99534.88;;;10.65;100.00
21960;BME280;11144;43.030;25.108;2023-05-07T03:48:39;99530.44;;;10.65;100.00
21960;BME280;11144;43.030;25.108;2023-05-07T03:50:13;99529.44;;;10.69;100.00
21960;BME280;11144;43.030;25.108;2023-05-07T03:51:47;99533.81;;;10.70;100.00
21960;BME280;11144;43.030;25.108;2023-05-07T03:53:20;99533.59;;;10.76;100.00
21960;BME280;11144;43.030;25.108;2023-05-07T03:54:54;99533.66;;;10.75;100.00
21960;BME280;11144;43.030;25.108;2023-05-07T03:56:27;99528.22;;;10.79;100.00
21960;BME280;11144;43.030;25.108;2023-05-07T03:58:02;99538.66;;;10.82;100.00
21960;BME280;11144;43.030;25.108;2023-05-07T03:59:34;99534.13;;;10.87;100.00
21960;BME280;11144;43.030;25.108;2023-05-07T04:01:09;99538.56;;;10.85;100.00
21960;BME280;11144;43.030;25.108;2023-05-07T04:02:42;99543.78;;;10.88;100.00
21960;BME280;11144;43.030;25.108;2023-05-07T04:04:16;99536.44;;;10.96;100.00
21960;BME280;11144;43.030;25.108;2023-05-07T04:05:49;99539.78;;;11.01;100.00
21960;BME280;11144;43.030;25.108;2023-05-07T04:07:23;99540.41;;;11.09;100.00
21960;BME280;11144;43.030;25.108;2023-05-07T04:08:56;99538.41;;;11.16;100.00
21960;BME280;11144;43.030;25.108;2023-05-07T04:10:30;99541.19;;;11.11;100.00
21960;BME280;11144;43.030;25.108;2023-05-07T04:12:07;99535.06;;;11.11;100.00
21960;BME280;11144;43.030;25.108;2023-05-07T04:13:40;99542.91;;;11.12;100.00
21960;BME280;11144;43.030;25.108;2023-05-07T04:15:14;99548.09;;;11.15;100.00
21960;BME280;11144;43.030;25.108;2023-05-07T04:16:49;99549.72;;;11.19;100.00
21960;BME280;11144;43.030;25.108;2023-05-07T04:18:21;99548.84;;;11.20;100.00
21960;BME280;11144;43.030;25.108;2023-05-07T04:19:55;99549.53;;;11.25;100.00
21960;BME280;11144;43.030;25.108;2023-05-07T04:21:29;99554.63;;;11.31;100.00
21960;BME280;11144;43.030;25.108;2023-05-07T04:23:03;99557.97;;;11.36;100.00
21960;BME280;11144;43.030;25.108;2023-05-07T04:24:36;99554.72;;;11.28;100.00
21960;BME280;11144;43.030;25.108;2023-05-07T04:26:10;99555.03;;;11.19;100.00
21960;BME280;11144;43.030;25.108;2023-05-07T04:27:46;99558.88;;;11.11;100.00
21960;BME280;11144;43.030;25.108;2023-05-07T04:29:22;99551.88;;;11.08;100.00
21960;BME280;11144;43.030;25.108;2023-05-07T04:30:55;99560.75;;;11.07;100.00
21960;BME280;11144;43.030;25.108;2023-05-07T04:32:29;99554.56;;;11.07;100.00
21960;BME280;11144;43.030;25.108;2023-05-07T04:34:03;99562.28;;;11.14;100.00
21960;BME280;11144;43.030;25.108;2023-05-07T04:35:37;99567.47;;;11.17;100.00
21960;BME280;11144;43.030;25.108;2023-05-07T04:37:10;99573.41;;;11.24;100.00
21960;BME280;11144;43.030;25.108;2023-05-07T04:38:44;99563.59;;;11.27;100.00
21960;BME280;11144;43.030;25.108;2023-05-07T04:40:16;99561.75;;;11.29;100.00
21960;BME280;11144;43.030;25.108;2023-05-07T04:41:50;99571.34;;;11.32;100.00
21960;BME280;11144;43.030;25.108;2023-05-07T04:43:24;99571.19;;;11.36;100.00
21960;BME280;11144;43.030;25.108;2023-05-07T04:44:56;99573.75;;;11.39;100.00
21960;BME280;11144;43.030;25.108;2023-05-07T04:46:30;99561.53;;;11.35;100.00
21960;BME280;11144;43.030;25.108;2023-05-07T04:48:05;99570.06;;;11.43;100.00
21960;BME280;11144;43.030;25.108;2023-05-07T04:49:39;99569.19;;;11.43;100.00
21960;BME280;11144;43.030;25.108;2023-05-07T04:51:13;99571.47;;;11.53;100.00
21960;BME280;11144;43.030;25.108;2023-05-07T04:52:45;99578.19;;;11.63;100.00
21960;BME280;11144;43.030;25.108;2023-05-07T04:54:19;99577.88;;;11.72;100.00
21960;BME280;11144;43.030;25.108;2023-05-07T04:55:55;99574.19;;;11.76;100.00
21960;BME280;11144;43.030;25.108;2023-05-07T04:57:33;99566.72;;;11.87;100.00
21960;BME280;11144;43.030;25.108;2023-05-07T04:59:06;99572.47;;;11.98;100.00
21960;BME280;11144;43.030;25.108;2023-05-07T05:00:39;99567.97;;;12.00;100.00
21960;BME280;11144;43.030;25.108;2023-05-07T05:02:14;99580.88;;;12.09;100.00
21960;BME280;11144;43.030;25.108;2023-05-07T05:03:53;99577.19;;;12.13;100.00
21960;BME280;11144;43.030;25.108;2023-05-07T05:05:26;99580.41;;;12.21;100.00
21960;BME280;11144;43.030;25.108;2023-05-07T05:07:00;99584.78;;;12.22;100.00
21960;BME280;11144;43.030;25.108;2023-05-07T05:08:32;99578.53;;;12.25;100.00
21960;BME280;11144;43.030;25.108;2023-05-07T05:10:07;99573.84;;;12.31;100.00
21960;BME280;11144;43.030;25.108;2023-05-07T05:11:44;99575.34;;;12.38;100.00
21960;BME280;11144;43.030;25.108;2023-05-07T05:13:17;99575.94;;;12.45;100.00
21960;BME280;11144;43.030;25.108;2023-05-07T05:14:51;99573.91;;;12.51;100.00
21960;BME280;11144;43.030;25.108;2023-05-07T05:16:24;99583.97;;;12.65;100.00
21960;BME280;11144;43.030;25.108;2023-05-07T05:17:57;99575.72;;;12.72;100.00
21960;BME280;11144;43.030;25.108;2023-05-07T05:19:31;99582.50;;;12.79;100.00
21960;BME280;11144;43.030;25.108;2023-05-07T05:21:04;99584.34;;;12.77;100.00
21960;BME280;11144;43.030;25.108;2023-05-07T05:22:38;99579.03;;;12.77;100.00
21960;BME280;11144;43.030;25.108;2023-05-07T05:24:12;99595.06;;;12.74;100.00
21960;BME280;11144;43.030;25.108;2023-05-07T05:25:45;99582.75;;;12.73;100.00
21960;BME280;11144;43.030;25.108;2023-05-07T05:27:19;99584.47;;;12.74;100.00
21960;BME280;11144;43.030;25.108;2023-05-07T05:28:52;99577.44;;;12.73;100.00
21960;BME280;11144;43.030;25.108;2023-05-07T05:30:27;99578.91;;;12.80;100.00
21960;BME280;11144;43.030;25.108;2023-05-07T05:32:01;99578.56;;;12.89;100.00
21960;BME280;11144;43.030;25.108;2023-05-07T05:33:35;99579.06;;;12.99;100.00
21960;BME280;11144;43.030;25.108;2023-05-07T05:35:11;99589.03;;;12.92;100.00
21960;BME280;11144;43.030;25.108;2023-05-07T05:36:45;99581.75;;;12.97;100.00
21960;BME280;11144;43.030;25.108;2023-05-07T05:38:20;99589.03;;;12.92;100.00
21960;BME280;11144;43.030;25.108;2023-05-07T05:39:54;99586.31;;;12.94;100.00
21960;BME280;11144;43.030;25.108;2023-05-07T05:41:30;99585.72;;;12.87;100.00
21960;BME280;11144;43.030;25.108;2023-05-07T05:43:03;99578.56;;;12.89;100.00
21960;BME280;11144;43.030;25.108;2023-05-07T05:44:37;99578.19;;;12.98;100.00
21960;BME280;11144;43.030;25.108;2023-05-07T05:46:10;99583.81;;;13.12;100.00
21960;BME280;11144;43.030;25.108;2023-05-07T05:47:44;99577.91;;;13.26;100.00
21960;BME280;11144;43.030;25.108;2023-05-07T05:49:17;99574.78;;;13.36;100.00
21960;BME280;11144;43.030;25.108;2023-05-07T05:50:52;99579.97;;;13.39;100.00
21960;BME280;11144;43.030;25.108;2023-05-07T05:52:25;99574.66;;;13.39;100.00
21960;BME280;11144;43.030;25.108;2023-05-07T05:54:00;99575.88;;;13.52;100.00
21960;BME280;11144;43.030;25.108;2023-05-07T05:55:33;99574.91;;;13.73;100.00
21960;BME280;11144;43.030;25.108;2023-05-07T05:57:07;99578.44;;;13.93;100.00
21960;BME280;11144;43.030;25.108;2023-05-07T05:58:40;99584.00;;;14.07;100.00
21960;BME280;11144;43.030;25.108;2023-05-07T06:00:14;99577.75;;;14.28;100.00
21960;BME280;11144;43.030;25.108;2023-05-07T06:01:50;99584.22;;;14.59;100.00
21960;BME280;11144;43.030;25.108;2023-05-07T06:03:24;99586.13;;;14.93;100.00
21960;BME280;11144;43.030;25.108;2023-05-07T06:04:56;99583.78;;;15.21;100.00
21960;BME280;11144;43.030;25.108;2023-05-07T06:06:32;99588.22;;;15.39;100.00
21960;BME280;11144;43.030;25.108;2023-05-07T06:08:06;99591.69;;;15.41;100.00
21960;BME280;11144;43.030;25.108;2023-05-07T06:09:40;99580.84;;;15.44;100.00
21960;BME280;11144;43.030;25.108;2023-05-07T06:11:13;99601.00;;;15.66;100.00
21960;BME280;11144;43.030;25.108;2023-05-07T06:12:49;99584.25;;;15.80;100.00
21960;BME280;11144;43.030;25.108;2023-05-07T06:14:22;99592.25;;;15.97;100.00
21960;BME280;11144;43.030;25.108;2023-05-07T06:15:55;99601.31;;;16.58;100.00
21960;BME280;11144;43.030;25.108;2023-05-07T06:17:28;99596.13;;;17.17;100.00
21960;BME280;11144;43.030;25.108;2023-05-07T06:19:02;99591.06;;;17.58;100.00
21960;BME280;11144;43.030;25.108;2023-05-07T06:20:35;99600.16;;;17.69;100.00
21960;BME280;11144;43.030;25.108;2023-05-07T06:22:14;99595.44;;;18.02;100.00
21960;BME280;11144;43.030;25.108;2023-05-07T06:23:48;99602.06;;;18.39;100.00
21960;BME280;11144;43.030;25.108;2023-05-07T06:25:23;99584.47;;;18.35;100.00
21960;BME280;11144;43.030;25.108;2023-05-07T06:26:56;99585.66;;;18.57;100.00
21960;BME280;11144;43.030;25.108;2023-05-07T06:28:32;99580.94;;;18.89;100.00
21960;BME280;11144;43.030;25.108;2023-05-07T06:30:10;99581.56;;;19.45;100.00
21960;BME280;11144;43.030;25.108;2023-05-07T06:31:44;99583.25;;;19.85;100.00
21960;BME280;11144;43.030;25.108;2023-05-07T06:33:18;99585.78;;;20.14;100.00
21960;BME280;11144;43.030;25.108;2023-05-07T06:34:52;99565.97;;;20.40;100.00
21960;BME280;11144;43.030;25.108;2023-05-07T06:36:26;99565.81;;;20.90;100.00
21960;BME280;11144;43.030;25.108;2023-05-07T06:38:03;99561.34;;;21.14;100.00
21960;BME280;11144;43.030;25.108;2023-05-07T06:39:37;99568.03;;;21.32;100.00
21960;BME280;11144;43.030;25.108;2023-05-07T06:41:10;99564.69;;;21.52;100.00
21960;BME280;11144;43.030;25.108;2023-05-07T06:42:43;99558.75;;;21.36;100.00
21960;BME280;11144;43.030;25.108;2023-05-07T06:44:27;99565.28;;;21.21;100.00
21960;BME280;11144;43.030;25.108;2023-05-07T06:46:21;99556.50;;;21.53;100.00
21960;BME280;11144;43.030;25.108;2023-05-07T06:47:54;99557.44;;;21.76;100.00
21960;BME280;11144;43.030;25.108;2023-05-07T06:49:28;99552.72;;;21.67;100.00
21960;BME280;11144;43.030;25.108;2023-05-07T06:51:02;99543.69;;;21.68;100.00
21960;BME280;11144;43.030;25.108;2023-05-07T06:52:36;99540.03;;;21.69;100.00
21960;BME280;11144;43.030;25.108;2023-05-07T06:54:11;99536.75;;;21.76;100.00
21960;BME280;11144;43.030;25.108;2023-05-07T06:55:47;99533.50;;;22.06;100.00
21960;BME280;11144;43.030;25.108;2023-05-07T06:57:24;99537.19;;;22.38;100.00
21960;BME280;11144;43.030;25.108;2023-05-07T06:58:57;99525.75;;;22.67;100.00
21960;BME280;11144;43.030;25.108;2023-05-07T07:00:30;99523.31;;;23.07;100.00
21960;BME280;11144;43.030;25.108;2023-05-07T07:02:04;99524.22;;;23.39;100.00
21960;BME280;11144;43.030;25.108;2023-05-07T07:03:37;99519.63;;;23.71;100.00
21960;BME280;11144;43.030;25.108;2023-05-07T07:05:11;99517.50;;;23.95;100.00
21960;BME280;11144;43.030;25.108;2023-05-07T07:06:45;99517.50;;;23.95;100.00
21960;BME280;11144;43.030;25.108;2023-05-07T07:08:18;99512.16;;;24.05;100.00
21960;BME280;11144;43.030;25.108;2023-05-07T07:09:54;99519.59;;;24.12;100.00
21960;BME280;11144;43.030;25.108;2023-05-07T07:11:28;99511.94;;;24.17;100.00
21960;BME280;11144;43.030;25.108;2023-05-07T07:13:02;99515.41;;;24.29;100.00
21960;BME280;11144;43.030;25.108;2023-05-07T07:14:36;99514.56;;;24.38;100.00
21960;BME280;11144;43.030;25.108;2023-05-07T07:16:09;99519.22;;;24.56;100.00
21960;BME280;11144;43.030;25.108;2023-05-07T07:17:43;99523.00;;;24.74;100.00
21960;BME280;11144;43.030;25.108;2023-05-07T07:19:16;99520.03;;;24.87;100.00
21960;BME280;11144;43.030;25.108;2023-05-07T07:20:51;99524.44;;;24.97;100.00
21960;BME280;11144;43.030;25.108;2023-05-07T07:22:24;99519.06;;;25.07;100.00
21960;BME280;11144;43.030;25.108;2023-05-07T07:23:58;99518.19;;;25.16;100.00
21960;BME280;11144;43.030;25.108;2023-05-07T07:25:31;99512.50;;;25.28;100.00
21960;BME280;11144;43.030;25.108;2023-05-07T07:27:05;99514.50;;;25.26;100.00
21960;BME280;11144;43.030;25.108;2023-05-07T07:28:42;99517.06;;;25.18;100.00
21960;BME280;11144;43.030;25.108;2023-05-07T07:30:19;99520.59;;;24.90;100.00
21960;BME280;11144;43.030;25.108;2023-05-07T07:31:53;99516.59;;;24.94;100.00
21960;BME280;11144;43.030;25.108;2023-05-07T07:33:27;99512.75;;;24.87;100.00
21960;BME280;11144;43.030;25.108;2023-05-07T07:35:01;99508.44;;;24.66;100.00
21960;BME280;11144;43.030;25.108;2023-05-07T07:36:35;99509.94;;;24.59;100.00
21960;BME280;11144;43.030;25.108;2023-05-07T07:38:19;99515.16;;;24.71;100.00
21960;BME280;11144;43.030;25.108;2023-05-07T07:39:53;99514.75;;;24.76;100.00
21960;BME280;11144;43.030;25.108;2023-05-07T07:41:27;99510.50;;;24.92;100.00
21960;BME280;11144;43.030;25.108;2023-05-07T07:43:01;99523.59;;;25.16;100.00
21960;BME280;11144;43.030;25.108;2023-05-07T07:44:35;99512.50;;;25.28;100.00
21960;BME280;11144;43.030;25.108;2023-05-07T07:46:12;99512.75;;;25.06;100.00
21960;BME280;11144;43.030;25.108;2023-05-07T07:47:47;99515.34;;;25.08;100.00
21960;BME280;11144;43.030;25.108;2023-05-07T07:49:20;99512.47;;;24.90;100.00
21960;BME280;11144;43.030;25.108;2023-05-07T07:50:54;99515.78;;;25.22;100.00
21960;BME280;11144;43.030;25.108;2023-05-07T07:52:27;99517.34;;;25.15;100.00
21960;BME280;11144;43.030;25.108;2023-05-07T07:54:00;99512.06;;;25.61;100.00
21960;BME280;11144;43.030;25.108;2023-05-07T07:55:38;99507.56;;;26.08;100.00
21960;BME280;11144;43.030;25.108;2023-05-07T07:57:13;99502.56;;;26.50;100.00
21960;BME280;11144;43.030;25.108;2023-05-07T07:58:46;99509.50;;;26.89;100.00
21960;BME280;11144;43.030;25.108;2023-05-07T08:00:20;99500.72;;;27.22;100.00
21960;BME280;11144;43.030;25.108;2023-05-07T08:01:57;99494.09;;;27.42;100.00
21960;BME280;11144;43.030;25.108;2023-05-07T08:03:33;99489.06;;;27.47;100.00
21960;BME280;11144;43.030;25.108;2023-05-07T08:05:08;99489.91;;;27.12;100.00
21960;BME280;11144;43.030;25.108;2023-05-07T08:06:41;99477.22;;;26.86;100.00